Time;durP1;ratioP1;P1;durP2;ratioP2;P2;SDS_P1;SDS_P2;PMS_P1;PMS_P2;Temp;Humidity;BMP_temperature;BMP_pressure;BME280_temperature;BME280_humidity;BME280_pressure;Samples;Min_cycle;Max_cycle;Signal;HPM_P1;HPM_P2
2023/11/30 00:00:48;;;;;;;5.67;3.33;;;;;;;;;;5115692;28;20369;-55
2023/11/30 00:03:14;;;;;;;6.60;3.67;;;;;;;;;;5115719;28;20034;-55
2023/11/30 00:05:40;;;;;;;4.53;3.17;;;;;;;;;;5115887;28;20026;-53
2023/11/30 00:08:06;;;;;;;4.47;3.63;;;;;;;;;;5115898;28;20027;-55
2023/11/30 00:10:32;;;;;;;5.03;3.83;;;;;;;;;;5115231;28;20504;-55
2023/11/30 00:12:58;;;;;;;4.10;3.27;;;;;;;;;;5115097;28;20058;-53
2023/11/30 00:15:24;;;;;;;6.17;3.63;;;;;;;;;;5115772;28;20446;-53
2023/11/30 00:17:50;;;;;;;7.77;3.53;;;;;;;;;;5115742;28;20088;-55
2023/11/30 00:20:15;;;;;;;5.53;3.53;;;;;;;;;;5115880;28;20027;-53
2023/11/30 00:22:41;;;;;;;6.00;3.93;;;;;;;;;;5115499;28;20072;-55
2023/11/30 00:25:08;;;;;;;4.53;3.73;;;;;;;;;;5115263;28;20028;-55
2023/11/30 00:27:34;;;;;;;6.63;4.37;;;;;;;;;;5115515;28;20371;-56
2023/11/30 00:29:59;;;;;;;4.80;3.43;;;;;;;;;;5115316;28;20027;-56
2023/11/30 00:32:25;;;;;;;5.43;3.73;;;;;;;;;;5115358;28;20059;-56
2023/11/30 00:34:51;;;;;;;6.33;3.80;;;;;;;;;;5114706;28;20358;-56
2023/11/30 00:37:17;;;;;;;5.13;3.23;;;;;;;;;;5115843;28;20023;-54
2023/11/30 00:39:43;;;;;;;5.57;4.20;;;;;;;;;;5114439;28;20069;-55
2023/11/30 00:42:09;;;;;;;4.30;3.17;;;;;;;;;;5115200;28;20032;-54
2023/11/30 00:44:35;;;;;;;4.90;3.60;;;;;;;;;;5114840;28;20031;-55
2023/11/30 00:47:01;;;;;;;8.67;4.33;;;;;;;;;;5115680;28;20024;-54
2023/11/30 00:49:27;;;;;;;5.13;3.33;;;;;;;;;;5114693;28;20024;-56
2023/11/30 00:51:53;;;;;;;6.30;3.70;;;;;;;;;;5115425;28;20510;-55
2023/11/30 00:54:19;;;;;;;9.83;4.07;;;;;;;;;;5114555;28;20028;-56
2023/11/30 00:56:45;;;;;;;5.30;3.50;;;;;;;;;;5114861;28;20052;-56
2023/11/30 00:59:11;;;;;;;5.70;3.43;;;;;;;;;;5114579;28;20027;-55
2023/11/30 01:01:36;;;;;;;4.03;3.63;;;;;;;;;;5115062;28;20506;-55
2023/11/30 01:04:02;;;;;;;5.37;3.47;;;;;;;;;;5114550;28;20072;-55
2023/11/30 01:06:28;;;;;;;8.47;3.73;;;;;;;;;;5114513;28;20345;-53
2023/11/30 01:08:54;;;;;;;8.23;4.27;;;;;;;;;;5114696;28;20058;-56
2023/11/30 01:11:20;;;;;;;7.30;4.43;;;;;;;;;;5114543;28;20024;-54
2023/11/30 01:13:46;;;;;;;5.53;4.13;;;;;;;;;;5114375;28;20112;-52
2023/11/30 01:16:12;;;;;;;5.43;4.20;;;;;;;;;;5114777;28;20024;-54
2023/11/30 01:18:38;;;;;;;5.10;4.03;;;;;;;;;;5115010;28;20543;-54
2023/11/30 01:21:04;;;;;;;5.63;4.03;;;;;;;;;;5114841;28;20020;-55
2023/11/30 01:23:30;;;;;;;10.97;4.03;;;;;;;;;;5114213;28;20031;-56
2023/11/30 01:25:56;;;;;;;6.07;4.63;;;;;;;;;;5114189;28;20026;-55
2023/11/30 01:28:22;;;;;;;5.60;4.30;;;;;;;;;;5114563;28;20107;-55
2023/11/30 01:30:48;;;;;;;5.10;4.60;;;;;;;;;;5113864;28;20051;-53
2023/11/30 01:33:14;;;;;;;6.43;4.70;;;;;;;;;;5114549;28;20392;-54
2023/11/30 01:35:40;;;;;;;6.23;4.57;;;;;;;;;;5114144;28;20442;-56
2023/11/30 01:38:06;;;;;;;4.70;3.90;;;;;;;;;;5114353;28;20047;-55
2023/11/30 01:40:32;;;;;;;6.03;4.70;;;;;;;;;;5114567;28;20046;-56
2023/11/30 01:42:58;;;;;;;7.77;4.17;;;;;;;;;;5113833;28;20023;-54
2023/11/30 01:45:24;;;;;;;4.83;4.33;;;;;;;;;;5113969;28;20024;-56
2023/11/30 01:47:50;;;;;;;6.10;4.00;;;;;;;;;;5114515;28;20027;-53
2023/11/30 01:50:16;;;;;;;9.40;5.43;;;;;;;;;;5095661;28;20377;-53
2023/11/30 01:52:42;;;;;;;4.63;4.20;;;;;;;;;;5116800;28;20030;-56
2023/11/30 01:55:08;;;;;;;6.07;5.10;;;;;;;;;;5117669;28;20091;-54
2023/11/30 01:57:35;;;;;;;8.17;6.10;;;;;;;;;;5118550;28;20376;-55
2023/11/30 02:00:01;;;;;;;12.13;5.07;;;;;;;;;;5118052;28;20028;-55
2023/11/30 02:02:27;;;;;;;6.70;5.77;;;;;;;;;;5117969;28;20032;-56
2023/11/30 02:04:53;;;;;;;7.07;4.83;;;;;;;;;;5117562;28;20440;-54
2023/11/30 02:07:20;;;;;;;5.80;5.00;;;;;;;;;;5118535;28;20033;-54
2023/11/30 02:09:46;;;;;;;6.70;4.70;;;;;;;;;;5117748;28;20011;-55
2023/11/30 02:12:12;;;;;;;6.93;5.10;;;;;;;;;;5117790;28;20084;-56
2023/11/30 02:14:38;;;;;;;7.73;4.67;;;;;;;;;;5118487;28;20031;-52
2023/11/30 02:17:04;;;;;;;9.13;5.93;;;;;;;;;;5118574;28;20064;-53
2023/11/30 02:19:30;;;;;;;10.43;4.80;;;;;;;;;;5118509;28;20023;-57
2023/11/30 02:21:56;;;;;;;10.30;5.30;;;;;;;;;;5117424;28;20103;-57
2023/11/30 02:24:22;;;;;;;9.93;5.50;;;;;;;;;;5117554;28;20031;-54
2023/11/30 02:26:48;;;;;;;7.00;5.43;;;;;;;;;;5117895;28;20030;-56
2023/11/30 02:29:15;;;;;;;6.93;4.83;;;;;;;;;;5117472;28;20047;-57
2023/11/30 02:31:41;;;;;;;7.27;5.40;;;;;;;;;;5117429;28;20560;-56
2023/11/30 02:34:07;;;;;;;10.50;5.07;;;;;;;;;;5117307;28;20118;-54
2023/11/30 02:36:33;;;;;;;6.03;4.80;;;;;;;;;;5117549;28;20495;-53
2023/11/30 02:38:59;;;;;;;6.73;4.77;;;;;;;;;;5117890;28;20330;-54
2023/11/30 02:41:25;;;;;;;7.93;5.43;;;;;;;;;;5117207;28;20369;-57
2023/11/30 02:43:51;;;;;;;5.60;5.00;;;;;;;;;;5117171;28;20023;-53
2023/11/30 02:46:17;;;;;;;6.40;4.77;;;;;;;;;;5117721;28;20019;-56
2023/11/30 02:48:43;;;;;;;6.97;4.83;;;;;;;;;;5117580;28;20030;-56
2023/11/30 02:51:11;;;;;;;6.83;6.13;;;;;;;;;;5117027;28;20523;-54
2023/11/30 02:53:36;;;;;;;8.50;5.63;;;;;;;;;;5116971;28;20182;-56
2023/11/30 02:56:03;;;;;;;6.20;4.57;;;;;;;;;;5117305;28;20535;-53
2023/11/30 02:58:28;;;;;;;8.40;5.53;;;;;;;;;;5116710;28;20358;-55
2023/11/30 03:00:54;;;;;;;10.20;5.37;;;;;;;;;;5116855;28;20031;-53
2023/11/30 03:03:22;;;;;;;11.17;5.50;;;;;;;;;;5116437;28;20023;-54
2023/11/30 03:05:48;;;;;;;9.23;5.57;;;;;;;;;;5116802;28;20027;-54
2023/11/30 03:08:14;;;;;;;8.17;4.83;;;;;;;;;;5117104;28;20031;-54
2023/11/30 03:10:40;;;;;;;7.60;6.17;;;;;;;;;;5116740;28;20114;-54
2023/11/30 03:13:06;;;;;;;7.07;5.47;;;;;;;;;;5116602;28;20055;-52
2023/11/30 03:15:32;;;;;;;7.73;5.53;;;;;;;;;;5116863;28;20028;-50
2023/11/30 03:17:58;;;;;;;6.73;5.43;;;;;;;;;;5117130;28;20151;-56
2023/11/30 03:20:24;;;;;;;7.47;5.80;;;;;;;;;;5116587;28;20381;-53
2023/11/30 03:22:50;;;;;;;9.90;6.50;;;;;;;;;;5116997;28;20031;-56
2023/11/30 03:25:16;;;;;;;7.17;5.13;;;;;;;;;;5116160;28;20031;-53
2023/11/30 03:27:41;;;;;;;7.20;6.23;;;;;;;;;;5116937;28;20053;-53
2023/11/30 03:30:08;;;;;;;10.97;6.73;;;;;;;;;;5116642;28;20035;-56
2023/11/30 03:32:34;;;;;;;9.97;6.90;;;;;;;;;;5116306;28;20350;-56
2023/11/30 03:34:59;;;;;;;7.83;6.37;;;;;;;;;;5116260;28;20039;-53
2023/11/30 03:37:25;;;;;;;10.47;6.70;;;;;;;;;;5116586;28;20023;-54
2023/11/30 03:39:51;;;;;;;8.90;6.37;;;;;;;;;;5115914;28;20030;-56
2023/11/30 03:42:17;;;;;;;7.63;6.70;;;;;;;;;;5116639;28;20032;-57
2023/11/30 03:44:43;;;;;;;7.43;5.77;;;;;;;;;;5116571;28;20406;-53
2023/11/30 03:47:12;;;;;;;8.30;6.40;;;;;;;;;;5116557;28;20058;-56
2023/11/30 03:49:38;;;;;;;6.93;5.27;;;;;;;;;;5115564;28;20408;-55
2023/11/30 03:52:04;;;;;;;7.43;5.70;;;;;;;;;;5116437;28;20034;-53
2023/11/30 03:54:30;;;;;;;7.63;6.20;;;;;;;;;;5115786;28;20032;-54
2023/11/30 03:56:56;;;;;;;14.07;6.43;;;;;;;;;;5116756;28;20046;-55
2023/11/30 03:59:22;;;;;;;7.40;6.03;;;;;;;;;;5115708;28;20035;-56
2023/11/30 04:01:48;;;;;;;6.83;6.13;;;;;;;;;;5116222;28;20452;-55
2023/11/30 04:04:14;;;;;;;8.30;6.70;;;;;;;;;;5115384;28;20028;-56
2023/11/30 04:06:40;;;;;;;8.10;6.03;;;;;;;;;;5115673;28;20020;-56
2023/11/30 04:09:06;;;;;;;9.23;7.80;;;;;;;;;;5115562;28;20031;-56
2023/11/30 04:11:32;;;;;;;6.27;5.67;;;;;;;;;;5115501;28;20453;-55
2023/11/30 04:14:07;;;;;;;7.20;6.50;;;;;;;;;;5114941;28;20039;-55
2023/11/30 04:16:34;;;;;;;6.97;6.23;;;;;;;;;;5115446;28;20362;-56
2023/11/30 04:19:00;;;;;;;11.93;7.63;;;;;;;;;;5116021;28;20454;-54
2023/11/30 04:21:27;;;;;;;9.07;7.60;;;;;;;;;;5115376;28;20020;-57
2023/11/30 04:23:52;;;;;;;9.20;7.20;;;;;;;;;;5115858;28;20361;-54
2023/11/30 04:26:18;;;;;;;9.93;7.97;;;;;;;;;;5115278;28;20039;-56
2023/11/30 04:28:44;;;;;;;8.50;7.63;;;;;;;;;;5115375;28;20415;-57
2023/11/30 04:31:10;;;;;;;10.00;7.47;;;;;;;;;;5115391;28;20370;-56
2023/11/30 04:33:36;;;;;;;9.43;8.20;;;;;;;;;;5115026;28;20085;-55
2023/11/30 04:36:02;;;;;;;9.37;8.37;;;;;;;;;;5115071;28;20023;-56
2023/11/30 04:38:29;;;;;;;12.27;9.03;;;;;;;;;;5115649;28;20030;-55
2023/11/30 04:40:55;;;;;;;8.70;7.00;;;;;;;;;;5114955;28;20102;-53
2023/11/30 04:43:21;;;;;;;14.13;8.30;;;;;;;;;;5114802;28;20039;-54
2023/11/30 04:45:47;;;;;;;9.30;8.30;;;;;;;;;;5115130;28;20028;-53
2023/11/30 04:48:13;;;;;;;9.53;7.73;;;;;;;;;;5115421;28;20330;-54
2023/11/30 04:50:39;;;;;;;10.87;8.50;;;;;;;;;;5114731;28;20449;-53
2023/11/30 04:53:05;;;;;;;10.00;8.57;;;;;;;;;;5114321;28;20024;-56
2023/11/30 04:55:31;;;;;;;10.50;7.50;;;;;;;;;;5115080;28;20040;-56
2023/11/30 04:57:57;;;;;;;9.60;7.53;;;;;;;;;;5115166;28;20132;-54
2023/11/30 05:00:23;;;;;;;9.10;8.20;;;;;;;;;;5114601;28;20234;-54
2023/11/30 05:02:53;;;;;;;11.23;7.77;;;;;;;;;;5114602;28;20024;-53
2023/11/30 05:05:19;;;;;;;10.48;7.38;;;;;;;;;;5114563;28;20031;-56
2023/11/30 05:07:45;;;;;;;8.30;7.50;;;;;;;;;;5114777;28;20023;-56
2023/11/30 05:10:14;;;;;;;9.23;8.17;;;;;;;;;;5115001;28;20106;-56
2023/11/30 05:12:40;;;;;;;8.63;7.27;;;;;;;;;;5114410;28;20051;-53
2023/11/30 05:15:07;;;;;;;12.70;8.40;;;;;;;;;;5114609;28;20027;-54
2023/11/30 05:17:33;;;;;;;13.57;7.13;;;;;;;;;;5114670;28;20019;-54
2023/11/30 05:19:59;;;;;;;9.53;8.30;;;;;;;;;;5114363;28;20062;-54
2023/11/30 05:22:25;;;;;;;10.73;9.03;;;;;;;;;;5113959;28;20470;-55
2023/11/30 05:24:51;;;;;;;8.93;7.60;;;;;;;;;;5114186;28;20030;-54
2023/11/30 05:27:17;;;;;;;8.70;7.90;;;;;;;;;;5114646;28;20068;-51
2023/11/30 05:29:43;;;;;;;14.00;9.63;;;;;;;;;;5114445;28;20454;-53
2023/11/30 05:32:09;;;;;;;14.83;8.83;;;;;;;;;;5114462;28;20070;-52
2023/11/30 05:34:35;;;;;;;10.43;8.17;;;;;;;;;;5114046;28;20057;-55
2023/11/30 05:37:03;;;;;;;9.73;8.80;;;;;;;;;;5114761;28;20024;-53
2023/11/30 05:39:29;;;;;;;10.80;9.60;;;;;;;;;;5114642;28;20031;-50
2023/11/30 05:41:55;;;;;;;11.17;9.90;;;;;;;;;;5114005;28;20020;-50
2023/11/30 05:44:21;;;;;;;12.30;9.97;;;;;;;;;;5114470;28;20350;-53
2023/11/30 05:46:48;;;;;;;11.47;9.93;;;;;;;;;;5114305;28;20453;-52
2023/11/30 05:49:14;;;;;;;16.30;9.90;;;;;;;;;;5113889;28;20063;-53
2023/11/30 05:51:40;;;;;;;11.57;9.47;;;;;;;;;;5114069;28;20035;-54
2023/11/30 05:54:06;;;;;;;13.57;8.73;;;;;;;;;;5113849;28;20469;-53
2023/11/30 05:56:32;;;;;;;11.53;9.40;;;;;;;;;;5114316;28;20048;-52
2023/11/30 05:58:58;;;;;;;11.10;9.00;;;;;;;;;;5113780;28;20035;-55
2023/11/30 06:01:23;;;;;;;9.20;8.30;;;;;;;;;;5113861;28;20047;-56
2023/11/30 06:03:50;;;;;;;12.47;9.83;;;;;;;;;;5113552;28;20031;-52
2023/11/30 06:06:16;;;;;;;10.40;8.07;;;;;;;;;;5113782;28;20184;-56
2023/11/30 06:08:41;;;;;;;11.47;9.33;;;;;;;;;;5114676;28;20119;-55
2023/11/30 06:11:08;;;;;;;9.27;8.30;;;;;;;;;;5113536;28;20027;-56
2023/11/30 06:13:34;;;;;;;12.57;10.47;;;;;;;;;;5113684;28;20032;-56
2023/11/30 06:16:00;;;;;;;9.90;8.80;;;;;;;;;;5113807;28;20034;-55
2023/11/30 06:18:26;;;;;;;10.90;9.00;;;;;;;;;;5114192;28;20074;-53
2023/11/30 06:20:52;;;;;;;12.13;9.97;;;;;;;;;;5114215;28;20436;-54
2023/11/30 06:23:18;;;;;;;9.60;8.37;;;;;;;;;;5113572;28;20051;-51
2023/11/30 06:25:44;;;;;;;9.43;7.80;;;;;;;;;;5113907;28;20059;-55
2023/11/30 06:28:10;;;;;;;9.73;8.63;;;;;;;;;;5114233;28;20024;-55
2023/11/30 06:30:36;;;;;;;11.40;8.07;;;;;;;;;;5113708;28;20035;-53
2023/11/30 06:33:02;;;;;;;13.97;9.77;;;;;;;;;;5114171;28;20023;-53
2023/11/30 06:35:28;;;;;;;11.50;9.63;;;;;;;;;;5113596;28;20039;-54
2023/11/30 06:37:54;;;;;;;10.03;8.63;;;;;;;;;;5115467;28;20072;-56
2023/11/30 06:40:20;;;;;;;11.13;9.17;;;;;;;;;;5117311;28;20019;-50
2023/11/30 06:42:46;;;;;;;14.00;9.27;;;;;;;;;;5117362;28;20024;-55
2023/11/30 06:45:12;;;;;;;14.23;9.97;;;;;;;;;;5117729;28;20031;-55
2023/11/30 06:47:37;;;;;;;11.13;8.23;;;;;;;;;;5117353;28;20108;-52
2023/11/30 06:50:04;;;;;;;11.07;8.17;;;;;;;;;;5117215;28;20026;-53
2023/11/30 06:52:30;;;;;;;11.60;8.13;;;;;;;;;;5117177;28;20111;-53
2023/11/30 06:54:56;;;;;;;9.40;7.80;;;;;;;;;;5117428;28;20038;-54
2023/11/30 06:57:22;;;;;;;10.00;8.67;;;;;;;;;;5117964;28;20398;-55
2023/11/30 06:59:48;;;;;;;12.60;9.67;;;;;;;;;;5116970;28;20024;-53
2023/11/30 07:02:14;;;;;;;12.17;8.30;;;;;;;;;;5117499;28;20031;-50
2023/11/30 07:04:40;;;;;;;9.50;8.10;;;;;;;;;;5116817;28;20096;-50
2023/11/30 07:07:05;;;;;;;11.30;8.20;;;;;;;;;;5116908;28;20019;-54
2023/11/30 07:09:31;;;;;;;10.03;7.83;;;;;;;;;;5116785;28;20027;-52
2023/11/30 07:11:57;;;;;;;9.77;8.33;;;;;;;;;;5116773;28;20032;-54
2023/11/30 07:14:23;;;;;;;11.27;9.73;;;;;;;;;;5116367;28;20034;-54
2023/11/30 07:16:49;;;;;;;13.10;9.67;;;;;;;;;;5117448;28;20118;-54
2023/11/30 07:19:15;;;;;;;12.03;9.20;;;;;;;;;;5117118;28;20476;-51
2023/11/30 07:21:41;;;;;;;16.63;10.70;;;;;;;;;;5116793;28;20027;-50
2023/11/30 07:24:08;;;;;;;12.67;10.67;;;;;;;;;;5116277;28;20423;-54
2023/11/30 07:26:34;;;;;;;12.50;10.17;;;;;;;;;;5116895;28;20488;-52
2023/11/30 07:29:00;;;;;;;12.07;9.80;;;;;;;;;;5117323;28;20027;-52
2023/11/30 07:31:26;;;;;;;13.07;10.50;;;;;;;;;;5116664;28;20020;-50
2023/11/30 07:33:52;;;;;;;11.93;9.83;;;;;;;;;;5116293;28;20032;-54
2023/11/30 07:36:18;;;;;;;11.80;9.40;;;;;;;;;;5117047;28;20023;-50
2023/11/30 07:38:44;;;;;;;10.27;7.87;;;;;;;;;;5116723;28;20111;-52
2023/11/30 07:41:11;;;;;;;11.03;9.30;;;;;;;;;;5116195;28;20030;-51
2023/11/30 07:43:37;;;;;;;8.57;7.67;;;;;;;;;;5116177;28;20027;-54
2023/11/30 07:46:03;;;;;;;12.20;9.13;;;;;;;;;;5116157;28;20077;-55
2023/11/30 07:48:29;;;;;;;10.13;8.60;;;;;;;;;;5116309;28;20434;-54
2023/11/30 07:50:55;;;;;;;10.97;8.03;;;;;;;;;;5115795;28;20031;-52
2023/11/30 07:53:23;;;;;;;14.57;10.53;;;;;;;;;;5115914;28;20027;-51
2023/11/30 07:55:54;;;;;;;11.50;9.83;;;;;;;;;;5116124;28;20043;-51
2023/11/30 07:58:21;;;;;;;11.77;9.23;;;;;;;;;;5116465;28;20027;-54
2023/11/30 08:00:47;;;;;;;9.83;8.63;;;;;;;;;;5116133;28;20024;-53
2023/11/30 08:03:13;;;;;;;14.57;10.53;;;;;;;;;;5115691;28;20476;-51
2023/11/30 08:05:39;;;;;;;12.27;10.17;;;;;;;;;;5116089;28;20386;-52
2023/11/30 08:08:05;;;;;;;13.43;10.43;;;;;;;;;;5116050;28;20081;-52
2023/11/30 08:10:31;;;;;;;10.77;9.67;;;;;;;;;;5115634;28;20028;-53
2023/11/30 08:12:57;;;;;;;10.27;8.73;;;;;;;;;;5115475;28;20031;-55
2023/11/30 08:15:23;;;;;;;10.67;8.90;;;;;;;;;;5115413;28;20031;-51
2023/11/30 08:17:49;;;;;;;15.80;9.00;;;;;;;;;;5116113;28;20043;-50
2023/11/30 08:20:15;;;;;;;10.70;9.57;;;;;;;;;;5115676;28;20023;-51
2023/11/30 08:22:41;;;;;;;11.87;9.60;;;;;;;;;;5115421;28;20166;-52
2023/11/30 08:25:07;;;;;;;10.57;8.53;;;;;;;;;;5115304;28;20066;-51
2023/11/30 08:27:35;;;;;;;11.33;8.93;;;;;;;;;;5115609;28;20029;-53
2023/11/30 08:30:01;;;;;;;10.23;8.23;;;;;;;;;;5115768;28;20059;-52
2023/11/30 08:32:28;;;;;;;14.33;8.57;;;;;;;;;;5115662;28;20397;-54
2023/11/30 08:34:53;;;;;;;11.40;8.53;;;;;;;;;;5115614;28;20031;-50
2023/11/30 08:37:19;;;;;;;9.67;7.33;;;;;;;;;;5115648;28;20505;-53
2023/11/30 08:39:45;;;;;;;12.20;9.53;;;;;;;;;;5114999;28;20059;-52
2023/11/30 08:42:11;;;;;;;8.70;7.80;;;;;;;;;;5115877;28;20112;-54
2023/11/30 08:44:37;;;;;;;9.23;6.67;;;;;;;;;;5114623;28;20469;-49
2023/11/30 08:47:03;;;;;;;14.03;8.43;;;;;;;;;;5115273;28;20161;-52
2023/11/30 08:49:29;;;;;;;9.90;6.47;;;;;;;;;;5114775;28;20020;-53
2023/11/30 08:51:55;;;;;;;12.20;9.27;;;;;;;;;;5114845;28;20073;-51
2023/11/30 08:54:21;;;;;;;11.30;8.40;;;;;;;;;;5114975;28;20031;-49
2023/11/30 08:56:47;;;;;;;13.47;8.30;;;;;;;;;;5114339;28;20050;-53
2023/11/30 08:59:13;;;;;;;9.67;8.40;;;;;;;;;;5114406;28;20024;-54
2023/11/30 09:01:39;;;;;;;9.10;7.90;;;;;;;;;;5114064;28;20423;-55
2023/11/30 09:04:08;;;;;;;11.03;9.37;;;;;;;;;;5115115;28;20322;-54
2023/11/30 09:06:43;;;;;;;11.00;8.43;;;;;;;;;;5115501;28;20023;-52
2023/11/30 09:09:09;;;;;;;10.63;7.90;;;;;;;;;;5102256;28;20414;-52
2023/11/30 09:11:36;;;;;;;10.53;8.67;;;;;;;;;;5114547;28;20027;-55
2023/11/30 09:14:01;;;;;;;11.93;9.00;;;;;;;;;;5114378;28;20031;-53
2023/11/30 09:16:27;;;;;;;10.43;8.77;;;;;;;;;;5114461;28;20088;-53
2023/11/30 09:18:54;;;;;;;12.97;9.90;;;;;;;;;;5114441;28;20080;-55
2023/11/30 09:21:20;;;;;;;11.37;9.17;;;;;;;;;;5114477;28;20032;-51
2023/11/30 09:23:46;;;;;;;10.50;9.40;;;;;;;;;;5114461;28;20377;-57
2023/11/30 09:26:12;;;;;;;13.30;10.77;;;;;;;;;;5114812;28;20023;-55
2023/11/30 09:28:38;;;;;;;11.93;8.83;;;;;;;;;;5114607;28;20107;-57
2023/11/30 09:31:05;;;;;;;10.73;8.80;;;;;;;;;;5114826;28;20077;-55
2023/11/30 09:33:31;;;;;;;9.73;7.97;;;;;;;;;;5114175;28;20032;-57
2023/11/30 09:35:58;;;;;;;9.97;8.03;;;;;;;;;;5114608;28;20024;-57
2023/11/30 09:38:23;;;;;;;10.60;8.33;;;;;;;;;;5114675;28;20062;-56
2023/11/30 09:40:50;;;;;;;12.00;9.63;;;;;;;;;;5115075;28;20345;-56
2023/11/30 09:43:17;;;;;;;16.00;9.07;;;;;;;;;;5113928;28;20042;-56
2023/11/30 09:45:45;;;;;;;11.53;7.93;;;;;;;;;;5114718;28;20028;-56
2023/11/30 09:48:11;;;;;;;11.90;8.63;;;;;;;;;;5114737;28;20536;-56
2023/11/30 09:50:37;;;;;;;12.87;9.83;;;;;;;;;;5114162;28;20047;-56
2023/11/30 09:53:03;;;;;;;11.32;9.75;;;;;;;;;;5114091;28;20020;-56
2023/11/30 09:55:30;;;;;;;10.30;8.43;;;;;;;;;;5113797;28;20422;-56
2023/11/30 09:57:56;;;;;;;11.97;8.77;;;;;;;;;;5114023;28;20445;-56
2023/11/30 10:00:22;;;;;;;14.47;10.33;;;;;;;;;;5114305;28;20024;-56
2023/11/30 10:02:54;;;;;;;12.03;9.40;;;;;;;;;;5114623;28;20038;-53
2023/11/30 10:05:20;;;;;;;12.03;8.53;;;;;;;;;;5114522;28;20042;-54
2023/11/30 10:07:46;;;;;;;12.63;8.80;;;;;;;;;;5114300;28;20028;-52
2023/11/30 10:10:14;;;;;;;13.73;9.73;;;;;;;;;;5113909;28;20090;-54
2023/11/30 10:12:40;;;;;;;9.47;8.57;;;;;;;;;;5115559;28;20032;-56
2023/11/30 10:15:06;;;;;;;11.97;10.13;;;;;;;;;;5117845;28;20019;-57
2023/11/30 10:17:32;;;;;;;10.17;9.13;;;;;;;;;;5119085;28;20035;-55
2023/11/30 10:19:58;;;;;;;10.63;7.93;;;;;;;;;;5117854;28;20418;-51
2023/11/30 10:22:25;;;;;;;11.63;9.77;;;;;;;;;;5117498;28;20473;-54
2023/11/30 10:24:51;;;;;;;13.53;10.20;;;;;;;;;;5117767;28;20411;-56
2023/11/30 10:27:21;;;;;;;13.63;9.00;;;;;;;;;;5118589;28;20027;-57
2023/11/30 10:29:48;;;;;;;13.75;9.27;;;;;;;;;;5118210;28;20023;-57
2023/11/30 10:32:15;;;;;;;12.80;9.50;;;;;;;;;;5117643;28;20031;-57
2023/11/30 10:34:43;;;;;;;10.57;9.38;;;;;;;;;;5118236;28;20035;-53
2023/11/30 10:37:10;;;;;;;12.23;10.40;;;;;;;;;;5117881;28;20475;-54
2023/11/30 10:39:37;;;;;;;10.80;8.97;;;;;;;;;;5117868;28;20024;-56
2023/11/30 10:42:12;;;;;;;15.43;10.07;;;;;;;;;;5117442;28;20020;-55
2023/11/30 10:44:38;;;;;;;12.30;9.40;;;;;;;;;;5117362;28;20023;-55
2023/11/30 10:47:06;;;;;;;12.57;9.30;;;;;;;;;;5117686;28;20020;-57
2023/11/30 10:49:32;;;;;;;9.68;8.68;;;;;;;;;;5117161;28;20372;-56
2023/11/30 10:51:59;;;;;;;12.73;9.07;;;;;;;;;;5116956;28;20099;-56
2023/11/30 10:54:44;;;;;;;10.98;9.65;;;;;;;;;;5117432;28;20365;-53
2023/11/30 10:57:10;;;;;;;12.15;9.65;;;;;;;;;;5118046;28;20035;-54
2023/11/30 10:59:36;;;;;;;9.35;7.88;;;;;;;;;;5117530;28;20058;-57
2023/11/30 11:02:05;;;;;;;12.10;8.93;;;;;;;;;;5117052;28;20032;-54
2023/11/30 11:04:31;;;;;;;12.57;10.02;;;;;;;;;;5116906;28;20401;-55
2023/11/30 11:07:01;;;;;;;11.82;8.93;;;;;;;;;;5116947;28;20472;-56
2023/11/30 11:09:27;;;;;;;10.35;8.30;;;;;;;;;;5117217;28;20365;-57
2023/11/30 11:11:59;;;;;;;9.95;8.77;;;;;;;;;;5117092;28;20024;-56
2023/11/30 11:14:34;;;;;;;10.27;8.70;;;;;;;;;;5117061;28;20027;-56
2023/11/30 11:17:09;;;;;;;11.25;8.82;;;;;;;;;;5117601;28;20050;-56
2023/11/30 11:19:42;;;;;;;11.07;8.95;;;;;;;;;;5117517;28;20034;-56
2023/11/30 11:22:15;;;;;;;13.93;8.13;;;;;;;;;;5116584;28;20027;-54
2023/11/30 11:24:41;;;;;;;11.43;8.63;;;;;;;;;;5116454;28;20036;-54
2023/11/30 11:27:07;;;;;;;11.63;9.63;;;;;;;;;;5116336;28;20461;-56
2023/11/30 11:29:33;;;;;;;11.52;9.35;;;;;;;;;;5116473;28;20369;-56
2023/11/30 11:31:59;;;;;;;9.80;7.95;;;;;;;;;;5116401;28;20165;-57
2023/11/30 11:34:25;;;;;;;9.15;7.90;;;;;;;;;;5116298;28;20358;-56
2023/11/30 11:36:51;;;;;;;10.20;8.35;;;;;;;;;;5116865;28;20024;-55
2023/11/30 11:39:17;;;;;;;10.32;8.40;;;;;;;;;;5116842;28;20031;-57
2023/11/30 11:41:46;;;;;;;9.70;8.23;;;;;;;;;;5117089;28;20023;-54
2023/11/30 11:44:13;;;;;;;9.82;7.53;;;;;;;;;;5116229;28;20028;-57
2023/11/30 11:46:39;;;;;;;11.25;7.57;;;;;;;;;;5116220;28;20377;-56
2023/11/30 11:49:05;;;;;;;7.82;6.97;;;;;;;;;;5116355;28;20028;-54
2023/11/30 11:51:41;;;;;;;8.90;6.75;;;;;;;;;;5116369;28;20024;-53
2023/11/30 11:54:15;;;;;;;8.45;7.13;;;;;;;;;;5116167;28;20028;-55
2023/11/30 11:56:45;;;;;;;8.93;7.75;;;;;;;;;;5116709;28;20445;-57
2023/11/30 11:59:12;;;;;;;9.77;7.53;;;;;;;;;;5116351;28;20034;-54
2023/11/30 12:01:38;;;;;;;13.13;7.88;;;;;;;;;;5115701;28;20027;-56
2023/11/30 12:04:04;;;;;;;9.95;8.02;;;;;;;;;;5116239;28;20369;-54
2023/11/30 12:06:30;;;;;;;16.40;8.10;;;;;;;;;;5097463;28;20469;-56
2023/11/30 12:08:56;;;;;;;10.45;8.27;;;;;;;;;;5116594;28;20031;-55
2023/11/30 12:11:22;;;;;;;13.80;7.68;;;;;;;;;;5115384;28;20521;-55
2023/11/30 12:13:51;;;;;;;8.82;7.85;;;;;;;;;;5115274;28;20038;-54
2023/11/30 12:16:17;;;;;;;8.20;7.00;;;;;;;;;;5115544;28;20036;-57
2023/11/30 12:18:43;;;;;;;11.10;8.30;;;;;;;;;;5115774;28;20019;-56
2023/11/30 12:21:09;;;;;;;10.82;8.38;;;;;;;;;;5115481;28;20097;-57
2023/11/30 12:23:36;;;;;;;14.38;8.32;;;;;;;;;;5115351;28;20115;-57
2023/11/30 12:26:01;;;;;;;10.38;8.30;;;;;;;;;;5116006;28;20035;-57
2023/11/30 12:28:28;;;;;;;11.98;8.05;;;;;;;;;;5115336;28;20031;-57
2023/11/30 12:30:54;;;;;;;9.70;8.65;;;;;;;;;;5115697;28;20023;-57
2023/11/30 12:33:23;;;;;;;9.93;8.20;;;;;;;;;;5114847;28;20429;-57
2023/11/30 12:35:52;;;;;;;10.10;8.90;;;;;;;;;;5114409;28;20024;-55
2023/11/30 12:38:18;;;;;;;9.10;8.02;;;;;;;;;;5115664;28;20020;-56
2023/11/30 12:40:43;;;;;;;9.68;8.40;;;;;;;;;;5114772;28;20586;-54
2023/11/30 12:43:09;;;;;;;12.88;9.02;;;;;;;;;;5115006;28;20114;-56
2023/11/30 12:45:35;;;;;;;10.40;8.85;;;;;;;;;;5114956;28;20116;-55
2023/11/30 12:48:01;;;;;;;11.30;9.25;;;;;;;;;;5115459;28;20023;-57
2023/11/30 12:50:27;;;;;;;10.35;8.60;;;;;;;;;;5114731;28;20061;-56
2023/11/30 12:52:55;;;;;;;12.15;8.48;;;;;;;;;;5115285;28;20047;-57
2023/11/30 12:55:21;;;;;;;11.98;8.50;;;;;;;;;;5115292;28;20419;-56
2023/11/30 12:57:47;;;;;;;12.00;9.95;;;;;;;;;;5114480;28;20077;-57
2023/11/30 13:00:16;;;;;;;12.70;8.75;;;;;;;;;;5114550;28;20023;-53
2023/11/30 13:02:45;;;;;;;10.18;8.13;;;;;;;;;;5114679;28;20019;-57
2023/11/30 13:05:11;;;;;;;13.25;9.82;;;;;;;;;;5114271;28;20463;-57
2023/11/30 13:07:41;;;;;;;13.73;9.10;;;;;;;;;;5115184;28;20415;-55
2023/11/30 13:10:08;;;;;;;10.38;8.13;;;;;;;;;;5115085;28;20403;-55
2023/11/30 13:12:34;;;;;;;12.02;8.95;;;;;;;;;;5114401;28;20480;-58
2023/11/30 13:15:00;;;;;;;10.43;8.23;;;;;;;;;;5114416;28;20031;-57
2023/11/30 13:17:29;;;;;;;10.25;7.57;;;;;;;;;;5115303;28;20031;-54
2023/11/30 13:19:55;;;;;;;13.10;8.88;;;;;;;;;;5115188;28;20071;-57
2023/11/30 13:22:21;;;;;;;10.80;8.23;;;;;;;;;;5114072;28;20031;-57
2023/11/30 13:24:47;;;;;;;12.95;9.10;;;;;;;;;;5114332;28;20110;-57
2023/11/30 13:27:13;;;;;;;10.73;8.35;;;;;;;;;;5114626;28;20510;-56
2023/11/30 13:29:39;;;;;;;9.02;7.53;;;;;;;;;;5114296;28;20358;-58
2023/11/30 13:32:05;;;;;;;9.98;8.65;;;;;;;;;;5113932;28;20112;-57
2023/11/30 13:34:32;;;;;;;11.20;8.20;;;;;;;;;;5114594;28;20089;-58
2023/11/30 13:36:58;;;;;;;11.02;8.45;;;;;;;;;;5114106;28;20085;-57
2023/11/30 13:39:26;;;;;;;9.55;8.48;;;;;;;;;;5114435;28;20023;-56
2023/11/30 13:41:52;;;;;;;9.82;8.70;;;;;;;;;;5113837;28;20089;-58
2023/11/30 13:44:18;;;;;;;17.15;9.90;;;;;;;;;;5113983;28;20027;-55
2023/11/30 13:46:44;;;;;;;11.05;8.88;;;;;;;;;;5116159;28;20031;-55
2023/11/30 13:49:14;;;;;;;12.82;8.30;;;;;;;;;;5118204;28;20024;-57
2023/11/30 13:51:40;;;;;;;11.30;9.18;;;;;;;;;;5118307;28;20028;-56
2023/11/30 13:54:06;;;;;;;10.02;8.25;;;;;;;;;;5118184;28;20164;-52
2023/11/30 13:56:32;;;;;;;11.35;8.23;;;;;;;;;;5118939;28;20075;-55
2023/11/30 13:58:59;;;;;;;9.43;8.43;;;;;;;;;;5118117;28;20575;-58
2023/11/30 14:01:25;;;;;;;7.50;6.70;;;;;;;;;;5117985;28;20028;-57
2023/11/30 14:03:51;;;;;;;13.35;8.40;;;;;;;;;;5118446;28;20496;-57
2023/11/30 14:06:17;;;;;;;10.63;8.43;;;;;;;;;;5117834;28;20019;-55
2023/11/30 14:08:43;;;;;;;10.65;8.73;;;;;;;;;;5118644;28;20059;-60
2023/11/30 14:11:11;;;;;;;10.40;8.13;;;;;;;;;;5117632;28;20020;-57
2023/11/30 14:13:37;;;;;;;10.52;7.95;;;;;;;;;;5117522;28;20019;-59
2023/11/30 14:16:04;;;;;;;9.43;8.40;;;;;;;;;;5118115;28;20449;-56
2023/11/30 14:18:30;;;;;;;8.50;7.60;;;;;;;;;;5118361;28;20039;-58
2023/11/30 14:20:56;;;;;;;9.55;8.43;;;;;;;;;;5117764;28;20043;-57
2023/11/30 14:23:22;;;;;;;10.13;7.93;;;;;;;;;;5117969;28;20031;-57
2023/11/30 14:25:48;;;;;;;11.50;8.32;;;;;;;;;;5118256;28;20023;-57
2023/11/30 14:28:14;;;;;;;9.18;7.55;;;;;;;;;;5118026;28;20360;-54
2023/11/30 14:30:40;;;;;;;8.77;7.68;;;;;;;;;;5117438;28;20031;-57